Dhangarhi Airport


Codes: VNDH/DHI
Name: Dhangarhi Airport
City: Dhangarhi
Country: Nepal
Elevation: 690 ft.

Photos at Dhangarhi Airport


   Photos courtesy of SpottingLog. You can add your own sightings and photos by signing up for a free trial today.



No photos found.

Weather at Dhangarhi Airport


Time (UTC)DescriptionTempratureWindCloud coverageVisibilityPressureHumidity
18-Apr-2024 00:00Overcast Clouds24°C2 mph, NW93%10000m1003hPa20%
18-Apr-2024 03:00Broken Clouds28°C4 mph, W60%10000m1005hPa16%
18-Apr-2024 06:00Broken Clouds38°C9 mph, W63%10000m1004hPa10%
18-Apr-2024 09:00Broken Clouds41°C13 mph, W63%10000m1000hPa8%
18-Apr-2024 12:00Broken Clouds39°C18 mph, W81%10000m999hPa12%
18-Apr-2024 15:00Overcast Clouds35°C16 mph, NW96%10000m1001hPa16%
18-Apr-2024 18:00Overcast Clouds30°C9 mph, NW90%10000m1003hPa21%
18-Apr-2024 21:00Overcast Clouds29°C9 mph, NW99%10000m1002hPa25%
19-Apr-2024 00:00Overcast Clouds26°C7 mph, NW88%10000m1002hPa28%
19-Apr-2024 03:00Few Clouds36°C4 mph, W16%10000m1002hPa16%
19-Apr-2024 06:00Few Clouds41°C13 mph, W13%10000m1001hPa12%
19-Apr-2024 09:00Clear Sky42°C18 mph, W0%10000m998hPa11%
19-Apr-2024 12:00Scattered Clouds40°C16 mph, W49%10000m997hPa13%
19-Apr-2024 15:00Few Clouds32°C9 mph, NW12%10000m1001hPa23%
19-Apr-2024 18:00Few Clouds30°C7 mph, N12%10000m1001hPa25%
19-Apr-2024 21:00Clear Sky27°C4 mph, NW3%10000m1001hPa30%
20-Apr-2024 00:00Scattered Clouds27°C4 mph, N28%10000m1001hPa29%
20-Apr-2024 03:00Few Clouds37°C7 mph, W23%10000m1003hPa17%
20-Apr-2024 06:00Few Clouds40°C11 mph, W12%10000m1001hPa12%
20-Apr-2024 09:00Clear Sky41°C13 mph, W0%10000m998hPa10%
20-Apr-2024 12:00Clear Sky39°C13 mph, W1%10000m997hPa8%
20-Apr-2024 15:00Clear Sky29°C7 mph, N0%10000m1001hPa14%
20-Apr-2024 18:00Clear Sky27°C4 mph, NW0%10000m1001hPa17%
20-Apr-2024 21:00Broken Clouds26°C2 mph, NE68%10000m1000hPa19%
21-Apr-2024 00:00Broken Clouds24°C0 mph, SW84%10000m1002hPa21%
21-Apr-2024 03:00Overcast Clouds33°C2 mph, S86%10000m1003hPa14%
21-Apr-2024 06:00Overcast Clouds39°C7 mph, W90%10000m1002hPa10%
21-Apr-2024 09:00Overcast Clouds41°C7 mph, W88%10000m999hPa8%
21-Apr-2024 12:00Overcast Clouds39°C9 mph, W94%10000m999hPa8%
21-Apr-2024 15:00Overcast Clouds30°C7 mph, N100%10000m1001hPa15%
21-Apr-2024 18:00Broken Clouds29°C7 mph, NW70%10000m1002hPa17%
21-Apr-2024 21:00Clear Sky27°C2 mph, N2%10000m1001hPa20%
22-Apr-2024 00:00Clear Sky25°C2 mph, E1%10000m1002hPa23%
22-Apr-2024 03:00Broken Clouds33°C4 mph, S63%10000m1004hPa15%
22-Apr-2024 06:00Broken Clouds41°C7 mph, W82%10000m1002hPa10%
22-Apr-2024 09:00Clear Sky42°C11 mph, W7%10000m999hPa7%
22-Apr-2024 12:00Clear Sky40°C16 mph, W8%10000m999hPa9%
22-Apr-2024 15:00Scattered Clouds30°C7 mph, NW41%10000m1002hPa14%
22-Apr-2024 18:00Scattered Clouds29°C4 mph, NW25%10000m1003hPa16%
22-Apr-2024 21:00Clear Sky27°C4 mph, N4%10000m1001hPa19%